createdAt,value
2022-10-23T00:02:46.000Z,9.4
2022-10-23T00:17:22.000Z,8.6
2022-10-23T00:32:01.000Z,9.4
2022-10-23T00:46:41.000Z,15.7
2022-10-23T01:01:19.000Z,13.7
2022-10-23T01:15:56.000Z,10.3
2022-10-23T01:30:36.000Z,10.2
2022-10-23T01:45:12.000Z,11.1
2022-10-23T01:59:51.000Z,15
2022-10-23T02:14:29.000Z,10.7
2022-10-23T02:29:08.000Z,10.5
2022-10-23T02:43:46.000Z,9.4
2022-10-23T02:58:22.000Z,10.8
2022-10-23T03:12:57.000Z,9.7
2022-10-23T03:27:31.000Z,11.2
2022-10-23T03:42:09.000Z,9.2
2022-10-23T03:56:48.000Z,10.1
2022-10-23T04:11:25.000Z,11.4
2022-10-23T04:26:03.000Z,12.3
2022-10-23T04:40:41.000Z,12.7
2022-10-23T04:55:20.000Z,13.3
2022-10-23T05:09:59.000Z,14.7
2022-10-23T05:24:36.000Z,24.8
2022-10-23T05:39:16.000Z,16
2022-10-23T05:53:56.000Z,14.2
2022-10-23T06:08:32.000Z,20.2
2022-10-23T06:23:03.000Z,21.2
2022-10-23T06:37:42.000Z,25.9
2022-10-23T06:52:22.000Z,23.3
2022-10-23T07:07:02.000Z,26.7
2022-10-23T07:21:43.000Z,22.7
2022-10-23T07:36:23.000Z,15.9
2022-10-23T07:51:04.000Z,7
2022-10-23T08:05:39.000Z,4.4
2022-10-23T08:20:23.000Z,3.2
2022-10-23T08:34:52.000Z,2.4
2022-10-23T08:49:29.000Z,2
2022-10-23T09:04:10.000Z,1.9
2022-10-23T09:18:49.000Z,1.3
2022-10-23T09:33:29.000Z,1.3
2022-10-23T09:48:08.000Z,1.7
2022-10-23T10:02:47.000Z,1.5
2022-10-23T10:17:26.000Z,1.6
2022-10-23T10:32:02.000Z,1
2022-10-23T10:46:42.000Z,1.2
2022-10-23T11:01:21.000Z,1.1
2022-10-23T11:16:00.000Z,1.3
2022-10-23T11:30:46.000Z,1.5
2022-10-23T11:35:43.000Z,1.1
2022-10-23T11:50:22.000Z,1.2
2022-10-23T12:04:58.000Z,1.2
2022-10-23T12:19:38.000Z,1.2
2022-10-23T12:34:25.000Z,1.5
2022-10-23T12:39:20.000Z,1.5
2022-10-23T12:53:51.000Z,1.5
2022-10-23T12:58:47.000Z,2
2022-10-23T13:03:41.000Z,1.7
2022-10-23T13:18:11.000Z,1.4
2022-10-23T13:32:50.000Z,1.8
2022-10-23T13:47:26.000Z,1.6
2022-10-23T14:02:05.000Z,1.6
2022-10-23T14:07:00.000Z,1.6
2022-10-23T14:11:55.000Z,1.6
2022-10-23T14:16:49.000Z,1.6
2022-10-23T14:21:44.000Z,1.6
2022-10-23T14:26:36.000Z,1.7
2022-10-23T14:41:12.000Z,1.5
2022-10-23T14:55:48.000Z,1.5
2022-10-23T15:10:22.000Z,1.5
2022-10-23T15:25:02.000Z,2
2022-10-23T15:39:37.000Z,1.5
2022-10-23T15:54:15.000Z,1.8
2022-10-23T16:08:53.000Z,2.7
2022-10-23T16:23:25.000Z,1.8
2022-10-23T16:38:03.000Z,2
2022-10-23T16:52:38.000Z,1.9
2022-10-23T17:07:16.000Z,2.4
2022-10-23T17:21:53.000Z,3.1
2022-10-23T17:36:30.000Z,3.3
2022-10-23T17:51:07.000Z,9.4
2022-10-23T18:05:45.000Z,4.2
2022-10-23T18:20:24.000Z,4.2
2022-10-23T18:34:59.000Z,5.5
2022-10-23T18:49:36.000Z,8
2022-10-23T19:04:15.000Z,7.9
2022-10-23T19:18:55.000Z,7.9
2022-10-23T19:33:34.000Z,7.9
2022-10-23T19:48:12.000Z,7.2
2022-10-23T20:02:52.000Z,6.9
2022-10-23T20:17:30.000Z,6
2022-10-23T20:32:09.000Z,6.2
2022-10-23T20:46:48.000Z,5.4
2022-10-23T21:01:29.000Z,4.9
2022-10-23T21:16:07.000Z,4.5
2022-10-23T21:30:45.000Z,4.7
2022-10-23T21:45:24.000Z,5.7
2022-10-23T22:00:03.000Z,5.7
2022-10-23T22:14:43.000Z,6.1
2022-10-23T22:29:22.000Z,6.4
2022-10-23T22:44:01.000Z,6.2
2022-10-23T22:58:40.000Z,6.2
2022-10-23T23:13:19.000Z,6.3
2022-10-23T23:27:58.000Z,6.2
2022-10-23T23:42:37.000Z,6.5
2022-10-23T23:57:16.000Z,7.7
